aviador You're here:

SULS Decoded Metar

MALDONADO in URUGUAY
Report Time2017-10-19 06:00:00
UTC Time2017-10-19 09:00:17
Flight Rules Old
Wind200° at 20 Gusting to 30 kt
W.Decomp.*RWY 19: 19.0 kt HW 6.2 kt RCW
RWY 26: 12.3 kt HW 15.8 kt LCW
W.Rank200° ranks 13
Current wind is above 200° avg. (11.3)
Visibility9999 m
Phenomena:Light Rain
Clouds:Broken 010 Hf
Overcast 070 Hf
Expected CloudBase > 400 ft AGL from Temp-Dew spread
Ceiling1,000 ft
Temp18°C (ISA +3)
Dew Point17°C (94% RH)
AAT13.2°C
QNH1002 hPa
Density Alt1,106 ft
Elevation98 ft
Report Wrong Elevation
Raw Report
METAR SULS 190600Z 20020G30KT 9999 -RA BKN010 OVC070 18/17 Q1002=

Extra information for SULS:More info

Metar Taf Metar & Taf Last 4 Metars F.Rules Stats Wind Profile Meteogram Temp Stats Airport Information Weather charts Add Link Nearby VenuesMetar ALERT Operation Metar Decoded Social comments